Des Moines International Airport Des Moines US
ICAO: KDSM
IATA: DSM
Category: Large
Scheduled Services: Yes

Elevation: 958 ft
TransAlt. 18000 ft.

Airport Communications:
APP/DEP:118.6
ATIS:119.55
CLNC DEL:134.15
GND:121.9
ANG OPS MAINT:138.15
FORT DODGE RDO:122.65
TWR:118.3
UNICOM:122.95

KDSM Zoom In..

If you have problems with the map follow the link
https://www.worldairports.se/pages/airport.php?
ICAO=KDSM

Runways:

(A) RW 05 length 9003 ft width 150 ft
ILS 111.50 / hdg 51

(B) RW 13 length 9002 ft width 150 ft
ILS 111.90 / hdg 129

(C) RW 23 length 9003 ft width 150 ft
---- / hdg 231

(D) RW 31 length 9002 ft width 150 ft
ILS 110.30 / hdg 309

Location; KDSM
Day. 27 / Time. 04.54 Zulu
* Altimeter: 29.94
* Temperature: -01° c. -30.2°f.
* Wind from: 270° Speed 06 kn.
Dewpoint: -02° c.
Visibility: 3/4 Statute Miles.
Clouds: Overcast 200 ft.
Conditions: Mist.

KDSM 270454Z 27006KT 3/4SM R31/4500VP6000FT BR OVC002 M01/M02 A2994 RMK AO2 TWR VIS 2 SLP148 T10111017


Wind From 270°
Speed 06 kn.

 
 
jpsmedia worldairports.se 2020   terms of use